Pengilly, Minnesota
Current Conditions -  °F | °C
As of 2:53 AM on Friday 19 Dec 2014 (Local Time) from KHIB Reporting Station
Overcast Overcast  
Wind Chill: 15°   Ceiling: 600
Heat Index: 21°   Visibility: 10mi
Dew Point: 17°   Wind: 5mph
Humidity: 85%   Direction: 180°S
Pressure: 30.21"   Gusts: NA
Location:  47.33°N, 93.2°W
Report Text: KHIB 190853Z AUTO 18004KT 10SM OVC006 M06/M08 A3021 RMK AO2 SLP254 T10611083 53002
Loading
Personal Weather Stations






























Interactive Weather Map New forecast layout! Learn more

10-Day Weather Forecast

Advertisements
Track Severe Weather on mobile